Time;durP1;ratioP1;P1;durP2;ratioP2;P2;SDS_P1;SDS_P2;PMS_P1;PMS_P2;Temp;Humidity;BMP_temperature;BMP_pressure;BME280_temperature;BME280_humidity;BME280_pressure;Samples;Min_cycle;Max_cycle;Signal;HPM_P1;HPM_P2
2022/08/09 00:03:52;;;;;;;6.88;4.55;;;;;;;13.15;91.77;102445.59;10401632;28;20055;-77
2022/08/09 00:08:53;;;;;;;9.70;5.40;;;;;;;13.04;92.19;102447.56;10422266;28;20040;-76
2022/08/09 00:13:53;;;;;;;11.07;5.45;;;;;;;12.95;92.56;102446.06;10422961;28;20044;-76
2022/08/09 00:18:54;;;;;;;8.60;5.88;;;;;;;12.87;93.29;102443.88;10422907;28;20040;-76
2022/08/09 00:23:54;;;;;;;9.93;5.93;;;;;;;12.87;93.78;102441.25;10423852;28;20124;-76
2022/08/09 00:28:55;;;;;;;11.43;5.95;;;;;;;12.85;93.99;102436.72;10420769;28;20037;-76
2022/08/09 00:33:56;;;;;;;8.48;5.80;;;;;;;12.82;94.29;102444.41;10423039;28;20041;-76
2022/08/09 00:38:57;;;;;;;9.57;5.70;;;;;;;12.76;94.99;102437.94;10404688;28;20049;-76
2022/08/09 00:43:58;;;;;;;6.15;4.82;;;;;;;12.74;95.27;102446.53;10406763;28;20124;-76
2022/08/09 00:48:58;;;;;;;12.10;5.97;;;;;;;12.73;95.30;102440.38;10439328;28;20037;-76
2022/08/09 00:53:59;;;;;;;17.50;8.30;;;;;;;12.68;95.76;102441.81;10405823;28;20064;-76
2022/08/09 00:58:59;;;;;;;8.85;5.05;;;;;;;12.69;96.64;102443.63;10406190;28;20476;-76
2022/08/09 01:04:03;;;;;;;11.02;6.68;;;;;;;12.65;96.47;102441.59;10429785;28;20128;-76
2022/08/09 01:09:23;;;;;;;7.90;5.20;;;;;;;12.62;97.17;102449.28;10420554;28;20508;-76
2022/08/09 01:14:39;;;;;;;8.77;6.18;;;;;;;12.62;97.71;102452.81;10429918;28;20098;-76
2022/08/09 01:19:49;;;;;;;9.93;5.50;;;;;;;12.58;98.09;102444.66;10407245;28;20053;-76
2022/08/09 01:24:59;;;;;;;9.00;6.10;;;;;;;12.48;98.13;102446.69;10389974;28;20048;-76
2022/08/09 01:30:01;;;;;;;7.75;6.32;;;;;;;12.53;99.02;102452.22;10390222;28;20385;-76
2022/08/09 01:35:05;;;;;;;7.88;5.40;;;;;;;12.48;99.45;102445.75;10405271;28;20061;-76
2022/08/09 01:40:06;;;;;;;10.25;6.30;;;;;;;12.40;99.33;102445.28;10365309;28;20042;-76
2022/08/09 01:45:07;;;;;;;10.80;6.68;;;;;;;12.44;100.00;102452.53;10372618;28;20041;-76
2022/08/09 01:50:08;;;;;;;11.82;6.97;;;;;;;12.37;100.00;102449.41;10388157;28;20056;-76
2022/08/09 01:55:09;;;;;;;11.82;6.65;;;;;;;12.32;100.00;102447.38;10405880;28;20501;-76
2022/08/09 02:00:10;;;;;;;17.33;7.85;;;;;;;12.26;100.00;102446.09;10403138;28;20038;-76
2022/08/09 02:05:12;;;;;;;10.35;7.13;;;;;;;12.22;100.00;102446.69;10388127;28;20463;-75
2022/08/09 02:10:24;;;;;;;9.63;6.67;;;;;;;12.16;100.00;102439.28;10388900;28;20405;-75
2022/08/09 02:15:25;;;;;;;;;;;;;;;12.06;100.00;102437.78;10389403;28;20560;-76
2022/08/09 02:20:25;;;;;;;10.25;5.85;;;;;;;12.00;100.00;102440.91;10403691;28;19931;-76
2022/08/09 02:25:31;;;;;;;10.98;5.80;;;;;;;11.92;100.00;102443.78;10385250;28;20041;-76
2022/08/09 02:30:39;;;;;;;11.98;7.32;;;;;;;11.93;100.00;102443.88;10388746;28;20029;-76
2022/08/09 02:35:40;;;;;;;9.82;7.93;;;;;;;11.85;100.00;102442.44;10424918;28;20420;-76
2022/08/09 02:40:41;;;;;;;7.88;6.07;;;;;;;11.79;100.00;102442.03;10427976;28;20041;-76
2022/08/09 02:45:42;;;;;;;10.93;7.15;;;;;;;11.71;100.00;102442.44;10408717;28;20131;-76
2022/08/09 02:50:44;;;;;;;11.27;8.00;;;;;;;11.69;100.00;102438.78;10427640;28;20048;-74
2022/08/09 02:55:45;;;;;;;9.43;6.43;;;;;;;11.64;100.00;102431.44;10408693;28;20546;-75
2022/08/09 03:00:45;;;;;;;9.93;8.18;;;;;;;11.58;100.00;102439.75;10406130;28;20041;-75
2022/08/09 03:05:46;;;;;;;12.48;8.65;;;;;;;11.54;100.00;102442.97;10417941;28;20040;-75
2022/08/09 03:10:46;;;;;;;12.85;8.00;;;;;;;11.53;100.00;102438.53;10409344;28;20128;-75
2022/08/09 03:15:47;;;;;;;10.93;7.93;;;;;;;11.53;100.00;102434.22;10382710;28;20121;-75
2022/08/09 03:20:47;;;;;;;11.77;8.00;;;;;;;11.49;100.00;102429.56;10365723;28;20797;-74
2022/08/09 03:25:48;;;;;;;14.20;10.25;;;;;;;11.51;100.00;102433.22;10393299;28;20047;-76
2022/08/09 03:30:48;;;;;;;12.70;8.18;;;;;;;11.53;100.00;102436.84;10421341;28;20037;-75
2022/08/09 03:35:50;;;;;;;21.92;10.55;;;;;;;11.47;100.00;102433.81;10403319;28;20041;-75
2022/08/09 03:40:50;;;;;;;15.40;8.75;;;;;;;11.40;100.00;102440.31;10357242;28;20489;-75
2022/08/09 03:45:51;;;;;;;12.25;8.55;;;;;;;11.37;100.00;102445.34;10371519;28;20048;-75
2022/08/09 03:50:53;;;;;;;13.30;8.73;;;;;;;11.34;100.00;102455.63;10366092;28;20040;-75
2022/08/09 03:55:53;;;;;;;16.27;10.23;;;;;;;11.30;100.00;102449.25;10379643;28;20044;-75
2022/08/09 04:00:54;;;;;;;10.52;7.72;;;;;;;11.31;100.00;102451.09;10359755;28;20091;-76
2022/08/09 04:05:54;;;;;;;14.57;8.88;;;;;;;11.29;100.00;102451.75;10379332;28;20037;-75
2022/08/09 04:10:55;;;;;;;20.08;9.52;;;;;;;11.33;100.00;102456.41;10381876;28;20549;-75
2022/08/09 04:15:59;;;;;;;18.35;10.38;;;;;;;11.33;100.00;102459.03;10388628;28;20151;-75
2022/08/09 04:21:00;;;;;;;13.82;9.98;;;;;;;11.33;100.00;102459.03;10397849;28;20049;-75
2022/08/09 04:26:01;;;;;;;17.25;10.50;;;;;;;11.31;100.00;102468.50;10388394;28;20041;-75
2022/08/09 04:31:02;;;;;;;13.48;9.07;;;;;;;11.34;100.00;102465.22;10391435;28;20044;-75
2022/08/09 04:36:03;;;;;;;14.90;10.63;;;;;;;11.35;100.00;102470.53;10393641;28;20034;-74
2022/08/09 04:41:03;;;;;;;12.88;8.88;;;;;;;11.36;100.00;102471.47;10382284;28;20061;-75
2022/08/09 04:46:06;;;;;;;15.73;9.43;;;;;;;11.42;100.00;102480.66;10381909;28;20095;-75
2022/08/09 04:51:10;;;;;;;15.07;10.75;;;;;;;11.50;100.00;102473.34;10389033;28;20045;-74
2022/08/09 04:56:11;;;;;;;17.90;9.00;;;;;;;11.57;100.00;102483.44;10385174;28;20401;-76
2022/08/09 05:01:16;;;;;;;15.52;9.65;;;;;;;11.73;100.00;102492.38;10389892;28;20034;-75
2022/08/09 05:06:17;;;;;;;14.57;9.93;;;;;;;11.93;100.00;102491.09;10398399;28;20040;-77
2022/08/09 05:11:18;;;;;;;15.48;8.90;;;;;;;12.04;100.00;102484.91;10404958;28;20045;-77
2022/08/09 05:16:19;;;;;;;12.93;9.10;;;;;;;12.20;100.00;102491.19;10389629;28;20051;-76
2022/08/09 05:21:19;;;;;;;13.07;7.95;;;;;;;12.29;100.00;102497.06;10405806;28;20040;-75
2022/08/09 05:26:20;;;;;;;12.15;8.77;;;;;;;12.51;100.00;102490.59;10393025;28;21716;-75
2022/08/09 05:31:20;;;;;;;22.13;11.25;;;;;;;12.73;100.00;102486.75;10408017;28;20047;-75
2022/08/09 05:36:24;;;;;;;18.42;11.52;;;;;;;12.94;100.00;102487.22;10391844;28;20614;-76
2022/08/09 05:41:26;;;;;;;17.15;11.45;;;;;;;13.14;100.00;102483.22;10425448;28;20183;-75
2022/08/09 05:46:27;;;;;;;15.82;10.95;;;;;;;13.58;100.00;102494.75;10407669;28;20037;-76
2022/08/09 05:51:27;;;;;;;13.70;7.50;;;;;;;15.02;100.00;102496.00;10409762;28;20056;-76
2022/08/09 05:56:28;;;;;;;9.80;6.03;;;;;;;16.32;93.86;102486.09;10411074;28;20480;-76
2022/08/09 06:01:29;;;;;;;9.35;4.88;;;;;;;17.79;81.08;102498.22;10440038;28;20029;-76
2022/08/09 06:06:29;;;;;;;12.00;5.95;;;;;;;19.28;72.66;102493.69;10429648;28;20052;-76
2022/08/09 06:11:30;;;;;;;6.10;4.30;;;;;;;20.51;68.02;102488.22;10426900;28;20037;-77
2022/08/09 06:16:30;;;;;;;8.57;5.23;;;;;;;21.72;62.47;102496.28;10426823;28;20037;-77
2022/08/09 06:21:31;;;;;;;6.87;4.30;;;;;;;22.69;56.71;102478.25;10446389;28;20065;-77
2022/08/09 06:26:33;;;;;;;8.30;5.53;;;;;;;23.07;56.38;102479.97;10426854;28;20044;-76
2022/08/09 06:31:34;;;;;;;9.73;4.88;;;;;;;23.57;54.98;102484.56;10411699;28;20098;-77
2022/08/09 06:36:35;;;;;;;;;;;;;;;24.12;52.81;102475.75;10428131;28;20128;-77
2022/08/09 06:41:36;;;;;;;6.93;3.97;;;;;;;24.89;50.08;102476.94;10421940;28;19932;-77
2022/08/09 06:46:36;;;;;;;;;;;;;;;24.85;50.33;102485.81;10385936;28;20037;-79
2022/08/09 06:51:37;;;;;;;6.83;3.60;;;;;;;25.46;47.37;102494.66;10443090;28;19927;-78
2022/08/09 06:56:38;;;;;;;9.55;3.53;;;;;;;25.69;46.65;102507.41;10423980;28;20051;-76
2022/08/09 07:01:38;;;;;;;6.88;3.55;;;;;;;25.87;47.57;102501.31;10444664;28;20040;-76
2022/08/09 07:06:39;;;;;;;6.30;3.80;;;;;;;26.50;46.22;102495.59;10425592;28;20041;-76
2022/08/09 07:11:39;;;;;;;10.70;4.13;;;;;;;26.77;45.11;102502.03;10426627;28;20064;-78
2022/08/09 07:16:40;;;;;;;6.20;4.30;;;;;;;27.34;43.98;102499.66;10443235;28;20473;-78
2022/08/09 07:21:42;;;;;;;8.85;3.42;;;;;;;27.74;42.95;102501.56;10424391;28;20079;-78
2022/08/09 07:26:42;;;;;;;5.82;3.92;;;;;;;28.09;41.25;102492.63;10385901;28;20042;-78
2022/08/09 07:31:43;;;;;;;;;;;;;;;28.12;41.43;102502.50;10398200;28;20112;-80
2022/08/09 07:36:43;;;;;;;8.07;4.33;;;;;;;28.05;40.03;102501.59;10442095;28;19921;-80
2022/08/09 07:41:44;;;;;;;6.88;3.65;;;;;;;28.66;40.11;102498.88;10425428;28;20055;-80
2022/08/09 07:46:46;;;;;;;;;;;;;;;29.06;39.36;102493.38;10425401;28;20388;-79
2022/08/09 07:51:46;;;;;;;13.98;4.63;;;;;;;29.01;40.25;102495.22;10441016;28;20007;-76
2022/08/09 07:56:47;;;;;;;;;;;;;;;29.91;37.29;102501.88;10406658;28;20044;-81
2022/08/09 08:01:47;;;;;;;7.23;4.43;;;;;;;30.26;37.11;102496.25;10424446;28;20007;-80
2022/08/09 08:06:48;;;;;;;;;;;;;;;30.26;37.50;102500.72;10399425;28;20047;-81
2022/08/09 08:11:48;;;;;;;6.60;3.83;;;;;;;31.04;34.65;102498.13;10422681;28;19963;-82
2022/08/09 08:16:49;;;;;;;7.50;4.40;;;;;;;30.51;36.19;102500.47;10401251;28;20144;-80
2022/08/09 08:21:51;;;;;;;10.38;4.55;;;;;;;30.84;35.31;102495.66;10440369;28;20443;-76
2022/08/09 08:26:52;;;;;;;5.97;4.63;;;;;;;31.46;34.83;102498.47;10438773;28;20048;-77
2022/08/09 08:31:52;;;;;;;7.05;3.60;;;;;;;31.58;34.70;102494.69;10438033;28;20108;-75
2022/08/09 08:36:53;;;;;;;61.33;7.57;;;;;;;31.81;34.07;102501.56;10440103;28;20041;-76
2022/08/09 08:41:53;;;;;;;7.30;4.20;;;;;;;31.85;33.30;102503.31;10423025;28;20048;-76
2022/08/09 08:46:54;;;;;;;6.80;3.45;;;;;;;31.86;32.87;102509.63;10388906;28;20497;-76
2022/08/09 08:51:55;;;;;;;6.43;3.53;;;;;;;32.17;33.18;102507.28;10421540;28;20029;-77
2022/08/09 08:56:56;;;;;;;5.78;3.45;;;;;;;32.21;33.00;102509.03;10439192;28;20045;-76
2022/08/09 09:01:56;;;;;;;6.13;4.13;;;;;;;32.45;32.45;102508.66;10417410;28;20125;-76
2022/08/09 09:06:59;;;;;;;8.02;3.03;;;;;;;32.93;31.57;102505.00;10420530;28;20381;-76
2022/08/09 09:11:59;;;;;;;7.22;3.00;;;;;;;32.90;30.85;102513.19;10401086;28;20045;-76
2022/08/09 09:17:01;;;;;;;6.15;3.42;;;;;;;33.18;32.11;102518.94;10405573;28;20560;-75
2022/08/09 09:22:06;;;;;;;6.28;4.20;;;;;;;33.20;30.08;102524.31;10414491;28;20043;-76
2022/08/09 09:27:20;;;;;;;5.45;2.33;;;;;;;33.09;29.57;102525.44;10421122;28;20126;-75
2022/08/09 09:32:26;;;;;;;6.55;2.95;;;;;;;33.01;30.18;102515.72;10442883;28;20041;-76
2022/08/09 09:37:28;;;;;;;5.18;2.83;;;;;;;33.23;30.65;102514.31;10428707;28;20055;-76
2022/08/09 09:42:31;;;;;;;6.60;3.00;;;;;;;33.68;30.15;102517.84;10420012;28;20045;-77
2022/08/09 09:47:32;;;;;;;7.13;3.08;;;;;;;33.62;29.91;102528.84;10426762;28;20037;-76
2022/08/09 09:52:33;;;;;;;5.97;4.03;;;;;;;34.21;28.25;102530.16;10426978;28;20515;-79
2022/08/09 09:57:33;;;;;;;6.68;2.85;;;;;;;34.46;29.14;102521.38;10426799;28;20033;-75
2022/08/09 10:02:44;;;;;;;6.25;2.08;;;;;;;33.83;29.19;102522.00;10398076;28;20542;-76
2022/08/09 10:07:44;;;;;;;6.53;3.65;;;;;;;34.50;27.04;102509.47;10427768;28;20076;-75
2022/08/09 10:12:45;;;;;;;7.30;3.22;;;;;;;33.85;28.59;102519.25;10428440;28;20513;-75
2022/08/09 10:17:46;;;;;;;8.20;2.65;;;;;;;33.91;28.70;102519.97;10398165;28;20120;-75
2022/08/09 10:22:48;;;;;;;4.95;2.58;;;;;;;33.43;28.92;102503.97;10424911;28;20125;-76
2022/08/09 10:27:48;;;;;;;7.90;2.17;;;;;;;33.81;28.24;102518.44;10411524;28;20045;-76
2022/08/09 10:32:50;;;;;;;8.05;3.10;;;;;;;33.60;27.61;102509.88;10424050;28;20030;-76
2022/08/09 10:37:51;;;;;;;4.32;2.50;;;;;;;33.99;28.25;102506.25;10425276;28;20033;-77
2022/08/09 10:42:51;;;;;;;3.55;2.70;;;;;;;34.65;26.83;102506.34;10426077;28;20520;-76
2022/08/09 10:48:12;;;;;;;8.15;2.65;;;;;;;34.34;27.19;102508.97;10423981;28;20500;-76
2022/08/09 10:53:47;;;;;;;6.15;2.22;;;;;;;34.52;28.68;102510.34;10403625;28;20034;-77
2022/08/09 10:58:47;;;;;;;6.10;3.13;;;;;;;34.73;26.60;102492.50;10403458;28;20532;-77
2022/08/09 11:04:09;;;;;;;3.65;2.20;;;;;;;34.70;26.97;102489.88;10391610;28;20041;-78
2022/08/09 11:09:10;;;;;;;4.18;2.28;;;;;;;34.83;26.47;102484.97;10421461;28;20485;-78
2022/08/09 11:14:37;;;;;;;5.28;3.13;;;;;;;33.59;27.77;102494.53;10425099;28;20044;-79
2022/08/09 11:19:57;;;;;;;6.57;2.53;;;;;;;34.33;26.79;102480.91;10450882;28;21017;-75
2022/08/09 11:25:04;;;;;;;4.97;2.87;;;;;;;34.41;26.39;102480.69;10445391;28;20052;-78
2022/08/09 11:30:09;;;;;;;14.07;10.00;;;;;;;34.06;26.13;102474.38;10411387;28;20740;-77
2022/08/09 11:35:25;;;;;;;5.75;2.88;;;;;;;33.44;28.04;102475.91;10417611;28;20056;-76
2022/08/09 11:40:30;;;;;;;6.68;3.00;;;;;;;34.09;27.44;102467.06;10415242;28;20051;-77
2022/08/09 11:45:42;;;;;;;13.27;3.72;;;;;;;34.67;25.86;102469.13;10402506;28;20060;-76
2022/08/09 11:51:00;;;;;;;7.15;2.58;;;;;;;33.83;27.00;102474.03;10391380;28;20067;-74
2022/08/09 11:56:13;;;;;;;6.20;2.92;;;;;;;34.09;28.98;102468.88;10366718;28;20440;-77
2022/08/09 12:01:15;;;;;;;6.05;2.90;;;;;;;34.53;26.95;102461.34;10440053;28;20122;-75
2022/08/09 12:06:20;;;;;;;4.90;2.63;;;;;;;33.93;28.42;102458.41;10363627;28;20041;-76
2022/08/09 12:11:23;;;;;;;4.45;2.72;;;;;;;34.19;26.36;102445.97;10382758;28;20038;-76
2022/08/09 12:16:30;;;;;;;3.95;1.98;;;;;;;34.32;27.78;102445.63;10442185;28;20132;-77
2022/08/09 12:21:32;;;;;;;3.67;2.42;;;;;;;34.89;27.21;102438.56;10387907;28;20476;-77
2022/08/09 12:26:44;;;;;;;6.65;2.67;;;;;;;34.93;25.94;102434.81;10422045;28;20033;-77
2022/08/09 12:31:45;;;;;;;12.55;2.95;;;;;;;34.66;26.12;102432.00;10383189;28;20095;-77
2022/08/09 12:36:52;;;;;;;4.32;1.98;;;;;;;34.29;25.65;102427.59;10381580;28;20034;-77
2022/08/09 12:41:53;;;;;;;12.63;4.00;;;;;;;33.81;27.67;102418.88;10399891;28;20140;-77
2022/08/09 12:46:53;;;;;;;;;;;;;;;34.03;27.99;102414.72;10382826;28;20508;-77
2022/08/09 12:51:57;;;;;;;5.43;2.50;;;;;;;34.32;25.06;102427.50;10427183;28;20292;-77
2022/08/09 12:56:57;;;;;;;4.45;2.10;;;;;;;33.87;26.23;102420.53;10424121;28;20036;-78
2022/08/09 13:01:58;;;;;;;;;;;;;;;34.15;26.16;102406.25;10396784;28;20496;-76
2022/08/09 13:07:12;;;;;;;5.63;2.33;;;;;;;34.33;27.11;102401.22;10419660;28;19935;-77
2022/08/09 13:12:12;;;;;;;4.72;2.00;;;;;;;33.94;25.00;102405.03;10410631;28;20033;-76
2022/08/09 13:17:14;;;;;;;;;;;;;;;33.48;27.13;102401.63;10422207;28;20046;-76
2022/08/09 13:22:16;;;;;;;5.53;2.57;;;;;;;34.32;26.05;102391.28;10423179;28;20431;-77
2022/08/09 13:27:32;;;;;;;7.50;3.05;;;;;;;34.28;26.01;102386.88;10405494;28;20033;-77
2022/08/09 13:32:53;;;;;;;14.43;3.03;;;;;;;34.79;25.36;102389.00;10438581;28;20049;-78
2022/08/09 13:37:56;;;;;;;;;;;;;;;33.91;26.21;102377.91;10397610;28;20076;-77
2022/08/09 13:42:57;;;;;;;10.52;6.90;;;;;;;33.89;27.71;102369.81;10381360;28;19921;-78
2022/08/09 13:47:57;;;;;;;;;;;;;;;33.85;25.27;102372.66;10396738;28;20045;-76
2022/08/09 13:52:58;;;;;;;9.30;3.10;;;;;;;33.80;26.17;102367.34;10397914;28;19921;-76
2022/08/09 13:57:59;;;;;;;;;;;;;;;34.27;26.13;102369.69;10398241;28;20115;-78
2022/08/09 14:02:59;;;;;;;4.55;2.35;;;;;;;34.48;25.74;102365.47;10397192;28;19929;-77
2022/08/09 14:08:03;;;;;;;;;;;;;;;34.53;25.52;102365.34;10399218;28;20044;-75
2022/08/09 14:13:06;;;;;;;3.70;2.60;;;;;;;33.81;25.69;102369.13;10392319;28;19929;-76
2022/08/09 14:18:07;;;;;;;4.68;2.75;;;;;;;33.83;26.44;102362.72;10389434;28;20176;-76
2022/08/09 14:23:07;;;;;;;;;;;;;;;33.48;27.02;102369.97;10404763;28;20087;-76
2022/08/09 14:28:10;;;;;;;4.73;2.23;;;;;;;33.85;26.74;102351.81;10383926;28;19974;-74
2022/08/09 14:33:11;;;;;;;6.05;2.25;;;;;;;33.95;26.54;102347.94;10399445;28;20045;-75
2022/08/09 14:38:11;;;;;;;;;;;;;;;33.72;26.87;102345.84;10399978;28;20482;-76
2022/08/09 14:43:12;;;;;;;5.23;2.50;;;;;;;33.53;27.63;102346.31;10387482;28;20365;-74
2022/08/09 14:48:12;;;;;;;;;;;;;;;33.49;27.22;102339.19;10344984;28;20038;-76
2022/08/09 14:53:13;;;;;;;5.13;2.20;;;;;;;33.06;28.19;102343.84;10394483;28;19921;-75
2022/08/09 14:58:13;;;;;;;13.60;12.13;;;;;;;32.79;29.53;102346.22;10444550;28;20037;-76
2022/08/09 15:03:14;;;;;;;;;;;;;;;32.50;28.40;102346.91;10446067;28;20400;-76
2022/08/09 15:08:14;;;;;;;4.97;2.70;;;;;;;32.45;28.04;102343.41;10406662;28;19925;-77
2022/08/09 15:13:15;;;;;;;4.43;2.53;;;;;;;32.14;28.59;102347.56;10384390;28;20348;-78
2022/08/09 15:18:15;;;;;;;5.23;2.40;;;;;;;32.06;28.44;102341.41;10402202;28;20351;-75
2022/08/09 15:23:16;;;;;;;6.00;3.80;;;;;;;31.66;30.30;102334.94;10401002;28;20091;-75
2022/08/09 15:28:16;;;;;;;2.72;1.92;;;;;;;31.18;30.02;102333.94;10401873;28;20087;-75
2022/08/09 15:33:17;;;;;;;5.70;2.00;;;;;;;30.76;30.74;102328.22;10400855;28;20068;-75
2022/08/09 15:38:18;;;;;;;6.13;2.40;;;;;;;29.32;32.36;102330.59;10401249;28;20280;-75
2022/08/09 15:43:18;;;;;;;3.45;2.13;;;;;;;28.42;35.21;102334.69;10400948;28;20099;-75
2022/08/09 15:48:19;;;;;;;6.13;1.90;;;;;;;27.93;36.22;102327.63;10402072;28;20034;-76
2022/08/09 15:53:19;;;;;;;7.13;2.20;;;;;;;27.61;36.97;102319.59;10402336;28;20044;-76
2022/08/09 15:58:20;;;;;;;4.30;2.03;;;;;;;27.03;36.99;102324.00;10385248;28;20037;-74
2022/08/09 16:03:21;;;;;;;9.23;4.03;;;;;;;26.90;36.78;102313.22;10399900;28;20037;-76
2022/08/09 16:08:22;;;;;;;3.20;2.00;;;;;;;26.96;37.72;102307.00;10395216;28;20049;-74
2022/08/09 16:13:23;;;;;;;44.27;31.43;;;;;;;26.91;37.17;102315.03;10401464;28;20042;-75
2022/08/09 16:18:23;;;;;;;4.17;2.07;;;;;;;26.74;37.57;102308.69;10401215;28;20079;-75
2022/08/09 16:23:25;;;;;;;3.17;1.63;;;;;;;26.58;38.05;102310.44;10401032;28;20116;-75
2022/08/09 16:28:25;;;;;;;3.22;2.33;;;;;;;26.40;38.21;102309.47;10400413;28;20064;-75
2022/08/09 16:33:26;;;;;;;5.93;2.23;;;;;;;26.49;38.08;102312.19;10401528;28;20141;-75
2022/08/09 16:38:26;;;;;;;5.27;2.60;;;;;;;26.42;37.83;102304.09;10396747;28;20042;-76
2022/08/09 16:43:27;;;;;;;10.67;2.63;;;;;;;26.26;39.08;102308.50;10394626;28;20354;-75
2022/08/09 16:48:27;;;;;;;3.47;2.33;;;;;;;26.18;38.03;102308.47;10383416;28;20032;-75
2022/08/09 16:53:28;;;;;;;7.17;2.60;;;;;;;26.20;37.94;102312.03;10399830;28;20112;-75
2022/08/09 16:58:29;;;;;;;3.93;1.90;;;;;;;26.03;38.82;102314.63;10396975;28;20485;-75
2022/08/09 17:03:29;;;;;;;2.70;1.70;;;;;;;25.93;39.89;102311.88;10399169;28;20047;-75
2022/08/09 17:08:30;;;;;;;5.97;2.10;;;;;;;25.74;39.39;102305.47;10399824;28;20033;-75
2022/08/09 17:13:33;;;;;;;3.90;1.67;;;;;;;25.67;39.06;102306.31;10400707;28;20116;-75
2022/08/09 17:18:33;;;;;;;5.93;2.30;;;;;;;25.54;39.27;102307.09;10397958;28;20473;-75
2022/08/09 17:23:34;;;;;;;6.83;2.73;;;;;;;25.50;39.40;102300.84;10398469;28;20117;-75
2022/08/09 17:28:34;;;;;;;5.13;2.00;;;;;;;25.33;40.12;102306.00;10398647;28;20381;-75
2022/08/09 17:33:35;;;;;;;4.97;2.10;;;;;;;25.11;40.29;102310.28;10398478;28;20038;-75
2022/08/09 17:38:35;;;;;;;2.57;1.70;;;;;;;24.89;40.78;102310.94;10400605;28;20384;-75
2022/08/09 17:43:36;;;;;;;2.13;1.40;;;;;;;24.75;41.35;102309.91;10398283;28;20046;-76
2022/08/09 17:48:38;;;;;;;2.60;1.73;;;;;;;24.59;41.77;102315.03;10397323;28;20038;-75
2022/08/09 17:53:38;;;;;;;4.68;1.77;;;;;;;24.44;42.37;102322.88;10382987;28;20044;-75
2022/08/09 17:58:42;;;;;;;3.13;1.83;;;;;;;24.19;43.14;102326.13;10390080;28;20503;-74
2022/08/09 18:03:42;;;;;;;2.83;1.80;;;;;;;23.89;43.88;102323.84;10406661;28;20418;-75
2022/08/09 18:08:43;;;;;;;4.57;2.47;;;;;;;23.82;44.66;102329.97;10387991;28;20033;-75
2022/08/09 18:13:43;;;;;;;3.13;1.40;;;;;;;23.58;45.20;102323.38;10407778;28;20477;-75
2022/08/09 18:18:44;;;;;;;2.80;1.60;;;;;;;23.35;44.79;102331.88;10387852;28;20053;-77
2022/08/09 18:23:44;;;;;;;2.40;1.50;;;;;;;23.10;46.32;102331.41;10405537;28;20135;-75
2022/08/09 18:28:45;;;;;;;5.43;1.87;;;;;;;23.06;46.32;102336.66;10404285;28;20043;-74
2022/08/09 18:33:45;;;;;;;6.30;1.97;;;;;;;22.95;46.88;102334.69;10388702;28;20052;-75
2022/08/09 18:38:46;;;;;;;3.73;1.90;;;;;;;22.68;47.39;102351.03;10406143;28;20589;-74
2022/08/09 18:43:49;;;;;;;4.70;2.10;;;;;;;22.54;47.57;102342.75;10403710;28;20033;-75
2022/08/09 18:48:49;;;;;;;6.57;2.00;;;;;;;22.33;48.12;102357.38;10405732;28;20037;-74
2022/08/09 18:53:51;;;;;;;3.88;2.15;;;;;;;22.06;49.88;102354.97;10403121;28;20473;-74
2022/08/09 18:58:51;;;;;;;;;;;;;;;21.73;49.84;102355.94;10402775;28;20060;-74
2022/08/09 19:03:53;;;;;;;3.80;2.63;;;;;;;21.42;50.72;102356.94;10403871;28;19999;-74
2022/08/09 19:08:54;;;;;;;3.53;1.55;;;;;;;21.09;52.79;102367.59;10386982;28;20282;-75
2022/08/09 19:13:55;;;;;;;4.85;2.15;;;;;;;20.68;54.59;102373.47;10459771;28;20397;-78
2022/08/09 19:18:55;;;;;;;5.25;2.10;;;;;;;20.37;55.66;102375.19;10386988;28;20124;-75
2022/08/09 19:23:56;;;;;;;5.18;1.65;;;;;;;20.18;55.85;102374.63;10375608;28;20037;-74
2022/08/09 19:28:56;;;;;;;5.15;2.30;;;;;;;20.00;55.91;102382.00;10399878;28;20047;-76
2022/08/09 19:33:59;;;;;;;4.00;1.83;;;;;;;19.84;56.28;102377.91;10398054;28;20102;-75
2022/08/09 19:39:00;;;;;;;3.15;1.92;;;;;;;19.60;57.43;102384.19;10397657;28;20041;-75
2022/08/09 19:44:00;;;;;;;5.90;1.73;;;;;;;19.36;57.80;102388.69;10401453;28;20034;-75
2022/08/09 19:49:02;;;;;;;6.43;1.90;;;;;;;19.19;58.49;102382.78;10382010;28;20061;-75
2022/08/09 19:54:02;;;;;;;2.55;2.10;;;;;;;19.03;59.25;102386.63;10398633;28;20032;-75
2022/08/09 19:59:03;;;;;;;3.35;1.77;;;;;;;18.70;62.02;102387.13;10384762;28;20045;-75
2022/08/09 20:04:03;;;;;;;4.40;2.10;;;;;;;18.34;64.33;102385.75;10398530;28;20037;-74
2022/08/09 20:09:04;;;;;;;4.38;2.20;;;;;;;18.09;66.44;102394.44;10395057;28;20045;-74
2022/08/09 20:14:07;;;;;;;6.22;2.75;;;;;;;17.82;67.15;102399.47;10380447;28;20120;-74
2022/08/09 20:19:10;;;;;;;13.77;2.92;;;;;;;17.59;68.59;102399.41;10397794;28;20045;-74
2022/08/09 20:24:10;;;;;;;4.30;2.17;;;;;;;17.41;70.30;102391.56;10377061;28;20042;-74
2022/08/09 20:29:11;;;;;;;5.13;3.03;;;;;;;17.26;70.23;102397.09;10365292;28;20084;-74
2022/08/09 20:34:11;;;;;;;6.22;2.40;;;;;;;17.17;70.93;102395.84;10400738;28;20083;-74
2022/08/09 20:39:12;;;;;;;3.97;1.88;;;;;;;17.04;71.89;102404.06;10375455;28;20069;-74
2022/08/09 20:44:12;;;;;;;5.97;2.70;;;;;;;16.90;73.34;102395.44;10395087;28;20501;-74
2022/08/09 20:49:16;;;;;;;4.82;2.50;;;;;;;16.94;73.86;102391.22;10398634;28;20124;-75
2022/08/09 20:54:16;;;;;;;2.85;1.85;;;;;;;16.88;73.19;102389.19;10401127;28;20030;-74
2022/08/09 20:59:17;;;;;;;3.22;1.88;;;;;;;16.90;71.88;102400.72;10398716;28;20045;-73
2022/08/09 21:04:18;;;;;;;7.57;1.90;;;;;;;16.71;72.99;102383.13;10398418;28;20121;-73
2022/08/09 21:09:19;;;;;;;5.97;2.92;;;;;;;16.59;74.05;102387.00;10399358;28;20037;-74
2022/08/09 21:14:19;;;;;;;8.77;2.33;;;;;;;16.53;74.01;102391.09;10397687;28;20037;-75
2022/08/09 21:19:20;;;;;;;7.63;2.65;;;;;;;16.35;74.13;102396.41;10397480;28;20045;-75
2022/08/09 21:24:23;;;;;;;4.78;2.20;;;;;;;16.18;74.82;102400.84;10397125;28;20095;-74
2022/08/09 21:29:23;;;;;;;4.43;2.20;;;;;;;16.04;75.38;102403.72;10428182;28;20047;-75
2022/08/09 21:34:24;;;;;;;6.28;2.25;;;;;;;15.97;75.84;102401.59;10447548;28;20037;-74
2022/08/09 21:39:25;;;;;;;4.00;2.72;;;;;;;15.88;76.18;102409.06;10430472;28;20167;-75
2022/08/09 21:44:25;;;;;;;3.75;2.35;;;;;;;15.73;76.98;102415.34;10404158;28;20126;-75
2022/08/09 21:49:26;;;;;;;9.00;3.22;;;;;;;15.63;77.50;102420.97;10404827;28;20125;-75
2022/08/09 21:54:29;;;;;;;4.15;2.40;;;;;;;15.52;78.25;102426.59;10404752;28;20515;-75
2022/08/09 21:59:29;;;;;;;4.60;2.50;;;;;;;15.43;78.65;102427.88;10443458;28;20029;-75
2022/08/09 22:04:30;;;;;;;6.63;2.50;;;;;;;15.32;79.37;102428.19;10446496;28;20175;-75
2022/08/09 22:09:31;;;;;;;4.63;2.92;;;;;;;15.26;79.15;102431.41;10429318;28;20033;-75
2022/08/09 22:14:31;;;;;;;5.45;2.88;;;;;;;15.22;79.23;102432.06;10427237;28;20033;-75
2022/08/09 22:19:32;;;;;;;5.97;3.97;;;;;;;15.21;79.22;102443.44;10388834;28;20088;-73
2022/08/09 22:24:32;;;;;;;6.28;2.90;;;;;;;15.17;79.08;102436.19;10411235;28;20489;-74
2022/08/09 22:29:33;;;;;;;5.75;2.63;;;;;;;15.06;79.50;102434.69;10428080;28;20052;-74
2022/08/09 22:34:33;;;;;;;4.82;3.58;;;;;;;15.04;80.70;102434.63;10428633;28;20033;-75
2022/08/09 22:39:34;;;;;;;5.85;2.67;;;;;;;15.10;81.88;102431.41;10446300;28;20612;-74
2022/08/09 22:44:34;;;;;;;6.07;2.60;;;;;;;15.07;82.95;102440.06;10428037;28;20033;-75
2022/08/09 22:49:35;;;;;;;4.65;2.63;;;;;;;15.02;83.05;102435.34;10427627;28;22427;-74
2022/08/09 22:54:35;;;;;;;3.85;2.95;;;;;;;14.94;83.25;102438.47;10445628;28;20139;-74
2022/08/09 22:59:36;;;;;;;4.35;2.42;;;;;;;14.89;83.46;102434.69;10426819;28;20120;-73
2022/08/09 23:04:39;;;;;;;6.35;2.92;;;;;;;14.83;83.40;102430.00;10425793;28;20029;-74
2022/08/09 23:09:40;;;;;;;9.20;2.75;;;;;;;14.75;83.74;102439.22;10444628;28;20068;-74